<?xml version="1.0" encoding="UTF-8" standalone="no" ?>
<gpx xmlns="http://www.topografix.com/GPX/1/1" xmlns:xsi="http://www.w3.org/2001/XMLSchema-instance" xsi:schemaLocation="http://www.topografix.com/GPX/1/1 http://www.topografix.com/GPX/1/1/gpx.xsd" version="1.1" creator="VisuGPX - https://www.visugpx.com">
  <metadata>
    <name>40 km chazelles/duerne</name>
    <desc><![CDATA[                                                                                                  ]]></desc>
  </metadata>
  <trk>
    <name><![CDATA[OR-2973134--Chazelles-sur-Lyon:40  km  chazelles/duerne sauf qu'il pleut]]></name>
    <trkseg>
      <trkpt lat="45.63864" lon="4.39628">
        <ele>616</ele>
        <time>2017-07-30T07:32:55Z</time>
      </trkpt>
      <trkpt lat="45.63845" lon="4.39639">
        <ele>615</ele>
        <time>2017-07-30T07:34:55Z</time>
      </trkpt>
      <trkpt lat="45.63855" lon="4.39673">
        <ele>613</ele>
        <time>2017-07-30T07:36:55Z</time>
      </trkpt>
      <trkpt lat="45.63866" lon="4.3973">
        <ele>611</ele>
        <time>2017-07-30T07:38:55Z</time>
      </trkpt>
      <trkpt lat="45.6389" lon="4.3982">
        <ele>606</ele>
        <time>2017-07-30T07:40:55Z</time>
      </trkpt>
      <trkpt lat="45.63921" lon="4.3987">
        <ele>603</ele>
        <time>2017-07-30T07:42:55Z</time>
      </trkpt>
      <trkpt lat="45.63925" lon="4.39889">
        <ele>601</ele>
        <time>2017-07-30T07:44:55Z</time>
      </trkpt>
      <trkpt lat="45.63903" lon="4.39966">
        <ele>595</ele>
        <time>2017-07-30T07:46:55Z</time>
      </trkpt>
      <trkpt lat="45.63879" lon="4.40001">
        <ele>593</ele>
        <time>2017-07-30T07:48:55Z</time>
      </trkpt>
      <trkpt lat="45.63873" lon="4.40032">
        <ele>591</ele>
        <time>2017-07-30T07:50:55Z</time>
      </trkpt>
      <trkpt lat="45.63875" lon="4.40194">
        <ele>579</ele>
        <time>2017-07-30T07:52:55Z</time>
      </trkpt>
      <trkpt lat="45.638" lon="4.40343">
        <ele>574</ele>
        <time>2017-07-30T07:54:55Z</time>
      </trkpt>
      <trkpt lat="45.63775" lon="4.40476">
        <ele>570</ele>
        <time>2017-07-30T07:56:55Z</time>
      </trkpt>
      <trkpt lat="45.63808" lon="4.40511">
        <ele>574</ele>
        <time>2017-07-30T07:58:55Z</time>
      </trkpt>
      <trkpt lat="45.63821" lon="4.40579">
        <ele>576</ele>
        <time>2017-07-30T08:00:55Z</time>
      </trkpt>
      <trkpt lat="45.63869" lon="4.40642">
        <ele>580</ele>
        <time>2017-07-30T08:02:55Z</time>
      </trkpt>
      <trkpt lat="45.63864" lon="4.40664">
        <ele>579</ele>
        <time>2017-07-30T08:04:55Z</time>
      </trkpt>
      <trkpt lat="45.63902" lon="4.40719">
        <ele>578</ele>
        <time>2017-07-30T08:06:55Z</time>
      </trkpt>
      <trkpt lat="45.63901" lon="4.40812">
        <ele>572</ele>
        <time>2017-07-30T08:08:55Z</time>
      </trkpt>
      <trkpt lat="45.63915" lon="4.4089">
        <ele>564</ele>
        <time>2017-07-30T08:10:55Z</time>
      </trkpt>
      <trkpt lat="45.63931" lon="4.40934">
        <ele>561</ele>
        <time>2017-07-30T08:12:55Z</time>
      </trkpt>
      <trkpt lat="45.63972" lon="4.40953">
        <ele>564</ele>
        <time>2017-07-30T08:14:55Z</time>
      </trkpt>
      <trkpt lat="45.64014" lon="4.40996">
        <ele>565</ele>
        <time>2017-07-30T08:16:55Z</time>
      </trkpt>
      <trkpt lat="45.64045" lon="4.41006">
        <ele>568</ele>
        <time>2017-07-30T08:18:55Z</time>
      </trkpt>
      <trkpt lat="45.64036" lon="4.41057">
        <ele>572</ele>
        <time>2017-07-30T08:20:55Z</time>
      </trkpt>
      <trkpt lat="45.63989" lon="4.41083">
        <ele>569</ele>
        <time>2017-07-30T08:22:55Z</time>
      </trkpt>
      <trkpt lat="45.63985" lon="4.41089">
        <ele>569</ele>
        <time>2017-07-30T08:24:55Z</time>
      </trkpt>
      <trkpt lat="45.64005" lon="4.41096">
        <ele>572</ele>
        <time>2017-07-30T08:26:55Z</time>
      </trkpt>
      <trkpt lat="45.64063" lon="4.41125">
        <ele>586</ele>
        <time>2017-07-30T08:28:55Z</time>
      </trkpt>
      <trkpt lat="45.64066" lon="4.41134">
        <ele>589</ele>
        <time>2017-07-30T08:30:55Z</time>
      </trkpt>
      <trkpt lat="45.64059" lon="4.41142">
        <ele>589</ele>
        <time>2017-07-30T08:32:55Z</time>
      </trkpt>
      <trkpt lat="45.64054" lon="4.41163">
        <ele>592</ele>
        <time>2017-07-30T08:34:55Z</time>
      </trkpt>
      <trkpt lat="45.64044" lon="4.41254">
        <ele>603</ele>
        <time>2017-07-30T08:36:55Z</time>
      </trkpt>
      <trkpt lat="45.64049" lon="4.41274">
        <ele>606</ele>
        <time>2017-07-30T08:38:55Z</time>
      </trkpt>
      <trkpt lat="45.64055" lon="4.41254">
        <ele>605</ele>
        <time>2017-07-30T08:40:55Z</time>
      </trkpt>
      <trkpt lat="45.64075" lon="4.41219">
        <ele>604</ele>
        <time>2017-07-30T08:42:55Z</time>
      </trkpt>
      <trkpt lat="45.64091" lon="4.41196">
        <ele>604</ele>
        <time>2017-07-30T08:44:55Z</time>
      </trkpt>
      <trkpt lat="45.64105" lon="4.41182">
        <ele>604</ele>
        <time>2017-07-30T08:46:55Z</time>
      </trkpt>
      <trkpt lat="45.64198" lon="4.41124">
        <ele>601</ele>
        <time>2017-07-30T08:48:55Z</time>
      </trkpt>
      <trkpt lat="45.64225" lon="4.41122">
        <ele>603</ele>
        <time>2017-07-30T08:50:55Z</time>
      </trkpt>
      <trkpt lat="45.6429" lon="4.41148">
        <ele>601</ele>
        <time>2017-07-30T08:52:55Z</time>
      </trkpt>
      <trkpt lat="45.64337" lon="4.41181">
        <ele>598</ele>
        <time>2017-07-30T08:54:55Z</time>
      </trkpt>
      <trkpt lat="45.64375" lon="4.41233">
        <ele>595</ele>
        <time>2017-07-30T08:56:55Z</time>
      </trkpt>
      <trkpt lat="45.64397" lon="4.41251">
        <ele>590</ele>
        <time>2017-07-30T08:58:55Z</time>
      </trkpt>
      <trkpt lat="45.64437" lon="4.4124">
        <ele>580</ele>
        <time>2017-07-30T09:00:55Z</time>
      </trkpt>
      <trkpt lat="45.64471" lon="4.41194">
        <ele>580</ele>
        <time>2017-07-30T09:02:55Z</time>
      </trkpt>
      <trkpt lat="45.6461" lon="4.41323">
        <ele>582</ele>
        <time>2017-07-30T09:04:55Z</time>
      </trkpt>
      <trkpt lat="45.64661" lon="4.41341">
        <ele>588</ele>
        <time>2017-07-30T09:06:55Z</time>
      </trkpt>
      <trkpt lat="45.6466" lon="4.41369">
        <ele>585</ele>
        <time>2017-07-30T09:08:55Z</time>
      </trkpt>
      <trkpt lat="45.64678" lon="4.41399">
        <ele>584</ele>
        <time>2017-07-30T09:10:55Z</time>
      </trkpt>
      <trkpt lat="45.64757" lon="4.4148">
        <ele>589</ele>
        <time>2017-07-30T09:12:55Z</time>
      </trkpt>
      <trkpt lat="45.64856" lon="4.41619">
        <ele>605</ele>
        <time>2017-07-30T09:14:55Z</time>
      </trkpt>
      <trkpt lat="45.64871" lon="4.41639">
        <ele>608</ele>
        <time>2017-07-30T09:16:55Z</time>
      </trkpt>
      <trkpt lat="45.64902" lon="4.41652">
        <ele>614</ele>
        <time>2017-07-30T09:18:55Z</time>
      </trkpt>
      <trkpt lat="45.64964" lon="4.4163">
        <ele>620</ele>
        <time>2017-07-30T09:20:55Z</time>
      </trkpt>
      <trkpt lat="45.6497" lon="4.41646">
        <ele>622</ele>
        <time>2017-07-30T09:22:55Z</time>
      </trkpt>
      <trkpt lat="45.64952" lon="4.41675">
        <ele>621</ele>
        <time>2017-07-30T09:24:55Z</time>
      </trkpt>
      <trkpt lat="45.64927" lon="4.41793">
        <ele>610</ele>
        <time>2017-07-30T09:26:55Z</time>
      </trkpt>
      <trkpt lat="45.64928" lon="4.4185">
        <ele>606</ele>
        <time>2017-07-30T09:28:55Z</time>
      </trkpt>
      <trkpt lat="45.64941" lon="4.41923">
        <ele>604</ele>
        <time>2017-07-30T09:30:55Z</time>
      </trkpt>
      <trkpt lat="45.64944" lon="4.41987">
        <ele>602</ele>
        <time>2017-07-30T09:32:55Z</time>
      </trkpt>
      <trkpt lat="45.6495" lon="4.42033">
        <ele>602</ele>
        <time>2017-07-30T09:34:55Z</time>
      </trkpt>
      <trkpt lat="45.64939" lon="4.42063">
        <ele>599</ele>
        <time>2017-07-30T09:36:55Z</time>
      </trkpt>
      <trkpt lat="45.64931" lon="4.42105">
        <ele>599</ele>
        <time>2017-07-30T09:38:55Z</time>
      </trkpt>
      <trkpt lat="45.64921" lon="4.42127">
        <ele>601</ele>
        <time>2017-07-30T09:40:55Z</time>
      </trkpt>
      <trkpt lat="45.64909" lon="4.42147">
        <ele>604</ele>
        <time>2017-07-30T09:42:55Z</time>
      </trkpt>
      <trkpt lat="45.64907" lon="4.42157">
        <ele>605</ele>
        <time>2017-07-30T09:44:55Z</time>
      </trkpt>
      <trkpt lat="45.6491" lon="4.42167">
        <ele>606</ele>
        <time>2017-07-30T09:46:55Z</time>
      </trkpt>
      <trkpt lat="45.6495" lon="4.42215">
        <ele>611</ele>
        <time>2017-07-30T09:48:55Z</time>
      </trkpt>
      <trkpt lat="45.6498" lon="4.42241">
        <ele>611</ele>
        <time>2017-07-30T09:50:55Z</time>
      </trkpt>
      <trkpt lat="45.64975" lon="4.4227">
        <ele>615</ele>
        <time>2017-07-30T09:52:55Z</time>
      </trkpt>
      <trkpt lat="45.64945" lon="4.42295">
        <ele>623</ele>
        <time>2017-07-30T09:54:55Z</time>
      </trkpt>
      <trkpt lat="45.649" lon="4.42313">
        <ele>630</ele>
        <time>2017-07-30T09:56:55Z</time>
      </trkpt>
      <trkpt lat="45.64859" lon="4.42298">
        <ele>632</ele>
        <time>2017-07-30T09:58:55Z</time>
      </trkpt>
      <trkpt lat="45.64854" lon="4.42252">
        <ele>627</ele>
        <time>2017-07-30T10:00:55Z</time>
      </trkpt>
      <trkpt lat="45.64836" lon="4.42234">
        <ele>626</ele>
        <time>2017-07-30T10:02:55Z</time>
      </trkpt>
      <trkpt lat="45.64805" lon="4.42217">
        <ele>630</ele>
        <time>2017-07-30T10:04:55Z</time>
      </trkpt>
      <trkpt lat="45.64794" lon="4.4217">
        <ele>626</ele>
        <time>2017-07-30T10:06:55Z</time>
      </trkpt>
      <trkpt lat="45.64779" lon="4.42136">
        <ele>626</ele>
        <time>2017-07-30T10:08:55Z</time>
      </trkpt>
      <trkpt lat="45.64728" lon="4.42106">
        <ele>637</ele>
        <time>2017-07-30T10:10:55Z</time>
      </trkpt>
      <trkpt lat="45.64727" lon="4.41973">
        <ele>630</ele>
        <time>2017-07-30T10:12:55Z</time>
      </trkpt>
      <trkpt lat="45.64716" lon="4.41962">
        <ele>633</ele>
        <time>2017-07-30T10:14:55Z</time>
      </trkpt>
      <trkpt lat="45.64677" lon="4.41953">
        <ele>643</ele>
        <time>2017-07-30T10:16:55Z</time>
      </trkpt>
      <trkpt lat="45.64542" lon="4.41876">
        <ele>658</ele>
        <time>2017-07-30T10:18:55Z</time>
      </trkpt>
      <trkpt lat="45.64493" lon="4.41822">
        <ele>660</ele>
        <time>2017-07-30T10:20:55Z</time>
      </trkpt>
      <trkpt lat="45.64461" lon="4.4181">
        <ele>664</ele>
        <time>2017-07-30T10:22:55Z</time>
      </trkpt>
      <trkpt lat="45.64439" lon="4.41807">
        <ele>667</ele>
        <time>2017-07-30T10:24:55Z</time>
      </trkpt>
      <trkpt lat="45.64394" lon="4.4179">
        <ele>667</ele>
        <time>2017-07-30T10:26:55Z</time>
      </trkpt>
      <trkpt lat="45.64362" lon="4.41797">
        <ele>667</ele>
        <time>2017-07-30T10:28:55Z</time>
      </trkpt>
      <trkpt lat="45.64337" lon="4.41816">
        <ele>668</ele>
        <time>2017-07-30T10:30:55Z</time>
      </trkpt>
      <trkpt lat="45.64415" lon="4.41863">
        <ele>677</ele>
        <time>2017-07-30T10:32:55Z</time>
      </trkpt>
      <trkpt lat="45.64466" lon="4.42009">
        <ele>692</ele>
        <time>2017-07-30T10:34:55Z</time>
      </trkpt>
      <trkpt lat="45.64496" lon="4.42056">
        <ele>697</ele>
        <time>2017-07-30T10:36:55Z</time>
      </trkpt>
      <trkpt lat="45.64491" lon="4.42161">
        <ele>700</ele>
        <time>2017-07-30T10:38:55Z</time>
      </trkpt>
      <trkpt lat="45.64523" lon="4.42305">
        <ele>705</ele>
        <time>2017-07-30T10:40:55Z</time>
      </trkpt>
      <trkpt lat="45.6455" lon="4.42352">
        <ele>702</ele>
        <time>2017-07-30T10:42:55Z</time>
      </trkpt>
      <trkpt lat="45.64556" lon="4.42385">
        <ele>700</ele>
        <time>2017-07-30T10:44:55Z</time>
      </trkpt>
      <trkpt lat="45.64559" lon="4.42423">
        <ele>699</ele>
        <time>2017-07-30T10:46:55Z</time>
      </trkpt>
      <trkpt lat="45.64595" lon="4.42473">
        <ele>694</ele>
        <time>2017-07-30T10:48:55Z</time>
      </trkpt>
      <trkpt lat="45.64653" lon="4.42576">
        <ele>687</ele>
        <time>2017-07-30T10:50:55Z</time>
      </trkpt>
      <trkpt lat="45.64712" lon="4.42638">
        <ele>687</ele>
        <time>2017-07-30T10:52:55Z</time>
      </trkpt>
      <trkpt lat="45.64766" lon="4.42739">
        <ele>692</ele>
        <time>2017-07-30T10:54:55Z</time>
      </trkpt>
      <trkpt lat="45.64794" lon="4.42842">
        <ele>687</ele>
        <time>2017-07-30T10:56:55Z</time>
      </trkpt>
      <trkpt lat="45.64799" lon="4.42919">
        <ele>683</ele>
        <time>2017-07-30T10:58:55Z</time>
      </trkpt>
      <trkpt lat="45.64841" lon="4.42985">
        <ele>679</ele>
        <time>2017-07-30T11:00:55Z</time>
      </trkpt>
      <trkpt lat="45.64889" lon="4.42992">
        <ele>678</ele>
        <time>2017-07-30T11:02:55Z</time>
      </trkpt>
      <trkpt lat="45.6503" lon="4.4308">
        <ele>679</ele>
        <time>2017-07-30T11:04:55Z</time>
      </trkpt>
      <trkpt lat="45.65078" lon="4.43133">
        <ele>678</ele>
        <time>2017-07-30T11:06:55Z</time>
      </trkpt>
      <trkpt lat="45.65091" lon="4.43166">
        <ele>679</ele>
        <time>2017-07-30T11:08:55Z</time>
      </trkpt>
      <trkpt lat="45.65075" lon="4.43282">
        <ele>695</ele>
        <time>2017-07-30T11:10:55Z</time>
      </trkpt>
      <trkpt lat="45.65135" lon="4.43271">
        <ele>691</ele>
        <time>2017-07-30T11:12:55Z</time>
      </trkpt>
      <trkpt lat="45.65201" lon="4.43245">
        <ele>684</ele>
        <time>2017-07-30T11:14:55Z</time>
      </trkpt>
      <trkpt lat="45.65234" lon="4.43344">
        <ele>694</ele>
        <time>2017-07-30T11:16:55Z</time>
      </trkpt>
      <trkpt lat="45.65246" lon="4.43417">
        <ele>702</ele>
        <time>2017-07-30T11:18:55Z</time>
      </trkpt>
      <trkpt lat="45.65232" lon="4.43479">
        <ele>712</ele>
        <time>2017-07-30T11:20:55Z</time>
      </trkpt>
      <trkpt lat="45.65231" lon="4.43567">
        <ele>720</ele>
        <time>2017-07-30T11:22:55Z</time>
      </trkpt>
      <trkpt lat="45.65207" lon="4.43636">
        <ele>726</ele>
        <time>2017-07-30T11:24:55Z</time>
      </trkpt>
      <trkpt lat="45.65171" lon="4.43687">
        <ele>729</ele>
        <time>2017-07-30T11:26:55Z</time>
      </trkpt>
      <trkpt lat="45.65138" lon="4.43721">
        <ele>726</ele>
        <time>2017-07-30T11:28:55Z</time>
      </trkpt>
      <trkpt lat="45.65138" lon="4.43745">
        <ele>726</ele>
        <time>2017-07-30T11:30:55Z</time>
      </trkpt>
      <trkpt lat="45.6524" lon="4.43876">
        <ele>744</ele>
        <time>2017-07-30T11:32:55Z</time>
      </trkpt>
      <trkpt lat="45.65249" lon="4.43936">
        <ele>746</ele>
        <time>2017-07-30T11:34:55Z</time>
      </trkpt>
      <trkpt lat="45.65295" lon="4.43981">
        <ele>748</ele>
        <time>2017-07-30T11:36:55Z</time>
      </trkpt>
      <trkpt lat="45.65367" lon="4.44054">
        <ele>751</ele>
        <time>2017-07-30T11:38:55Z</time>
      </trkpt>
      <trkpt lat="45.65387" lon="4.44176">
        <ele>755</ele>
        <time>2017-07-30T11:40:55Z</time>
      </trkpt>
      <trkpt lat="45.65403" lon="4.44226">
        <ele>758</ele>
        <time>2017-07-30T11:42:55Z</time>
      </trkpt>
      <trkpt lat="45.65425" lon="4.44236">
        <ele>761</ele>
        <time>2017-07-30T11:44:55Z</time>
      </trkpt>
      <trkpt lat="45.65448" lon="4.44315">
        <ele>760</ele>
        <time>2017-07-30T11:46:55Z</time>
      </trkpt>
      <trkpt lat="45.65489" lon="4.4435">
        <ele>764</ele>
        <time>2017-07-30T11:48:55Z</time>
      </trkpt>
      <trkpt lat="45.65524" lon="4.44437">
        <ele>761</ele>
        <time>2017-07-30T11:50:55Z</time>
      </trkpt>
      <trkpt lat="45.65565" lon="4.44439">
        <ele>764</ele>
        <time>2017-07-30T11:52:55Z</time>
      </trkpt>
      <trkpt lat="45.65615" lon="4.44458">
        <ele>762</ele>
        <time>2017-07-30T11:54:55Z</time>
      </trkpt>
      <trkpt lat="45.65645" lon="4.44451">
        <ele>759</ele>
        <time>2017-07-30T11:56:55Z</time>
      </trkpt>
      <trkpt lat="45.65658" lon="4.4447">
        <ele>759</ele>
        <time>2017-07-30T11:58:55Z</time>
      </trkpt>
      <trkpt lat="45.65656" lon="4.44492">
        <ele>761</ele>
        <time>2017-07-30T12:00:55Z</time>
      </trkpt>
      <trkpt lat="45.65667" lon="4.44519">
        <ele>760</ele>
        <time>2017-07-30T12:02:55Z</time>
      </trkpt>
      <trkpt lat="45.65706" lon="4.44536">
        <ele>757</ele>
        <time>2017-07-30T12:04:55Z</time>
      </trkpt>
      <trkpt lat="45.6572" lon="4.4453">
        <ele>756</ele>
        <time>2017-07-30T12:06:55Z</time>
      </trkpt>
      <trkpt lat="45.65858" lon="4.44548">
        <ele>738</ele>
        <time>2017-07-30T12:08:55Z</time>
      </trkpt>
      <trkpt lat="45.65934" lon="4.44595">
        <ele>730</ele>
        <time>2017-07-30T12:10:55Z</time>
      </trkpt>
      <trkpt lat="45.65979" lon="4.44707">
        <ele>735</ele>
        <time>2017-07-30T12:12:55Z</time>
      </trkpt>
      <trkpt lat="45.6599" lon="4.44758">
        <ele>738</ele>
        <time>2017-07-30T12:14:55Z</time>
      </trkpt>
      <trkpt lat="45.6603" lon="4.44776">
        <ele>731</ele>
        <time>2017-07-30T12:16:55Z</time>
      </trkpt>
      <trkpt lat="45.66064" lon="4.44798">
        <ele>726</ele>
        <time>2017-07-30T12:18:55Z</time>
      </trkpt>
      <trkpt lat="45.66093" lon="4.44785">
        <ele>719</ele>
        <time>2017-07-30T12:20:55Z</time>
      </trkpt>
      <trkpt lat="45.66114" lon="4.44802">
        <ele>716</ele>
        <time>2017-07-30T12:22:55Z</time>
      </trkpt>
      <trkpt lat="45.66115" lon="4.4485">
        <ele>719</ele>
        <time>2017-07-30T12:24:55Z</time>
      </trkpt>
      <trkpt lat="45.66108" lon="4.44888">
        <ele>722</ele>
        <time>2017-07-30T12:26:55Z</time>
      </trkpt>
      <trkpt lat="45.66078" lon="4.44971">
        <ele>729</ele>
        <time>2017-07-30T12:28:55Z</time>
      </trkpt>
      <trkpt lat="45.6606" lon="4.45039">
        <ele>730</ele>
        <time>2017-07-30T12:30:55Z</time>
      </trkpt>
      <trkpt lat="45.6606" lon="4.45082">
        <ele>728</ele>
        <time>2017-07-30T12:32:55Z</time>
      </trkpt>
      <trkpt lat="45.66063" lon="4.451">
        <ele>726</ele>
        <time>2017-07-30T12:34:55Z</time>
      </trkpt>
      <trkpt lat="45.66041" lon="4.45164">
        <ele>729</ele>
        <time>2017-07-30T12:36:55Z</time>
      </trkpt>
      <trkpt lat="45.66029" lon="4.45219">
        <ele>730</ele>
        <time>2017-07-30T12:38:55Z</time>
      </trkpt>
      <trkpt lat="45.65993" lon="4.45248">
        <ele>733</ele>
        <time>2017-07-30T12:40:55Z</time>
      </trkpt>
      <trkpt lat="45.65964" lon="4.45265">
        <ele>734</ele>
        <time>2017-07-30T12:42:55Z</time>
      </trkpt>
      <trkpt lat="45.65998" lon="4.45345">
        <ele>731</ele>
        <time>2017-07-30T12:44:55Z</time>
      </trkpt>
      <trkpt lat="45.66068" lon="4.4545">
        <ele>725</ele>
        <time>2017-07-30T12:46:55Z</time>
      </trkpt>
      <trkpt lat="45.66106" lon="4.45528">
        <ele>719</ele>
        <time>2017-07-30T12:48:55Z</time>
      </trkpt>
      <trkpt lat="45.66146" lon="4.45586">
        <ele>718</ele>
        <time>2017-07-30T12:50:55Z</time>
      </trkpt>
      <trkpt lat="45.66166" lon="4.45674">
        <ele>720</ele>
        <time>2017-07-30T12:52:55Z</time>
      </trkpt>
      <trkpt lat="45.66224" lon="4.45701">
        <ele>722</ele>
        <time>2017-07-30T12:54:55Z</time>
      </trkpt>
      <trkpt lat="45.66217" lon="4.45933">
        <ele>733</ele>
        <time>2017-07-30T12:56:55Z</time>
      </trkpt>
      <trkpt lat="45.66209" lon="4.45967">
        <ele>737</ele>
        <time>2017-07-30T12:58:55Z</time>
      </trkpt>
      <trkpt lat="45.66318" lon="4.46057">
        <ele>743</ele>
        <time>2017-07-30T13:00:55Z</time>
      </trkpt>
      <trkpt lat="45.66353" lon="4.46111">
        <ele>746</ele>
        <time>2017-07-30T13:02:55Z</time>
      </trkpt>
      <trkpt lat="45.66375" lon="4.46153">
        <ele>749</ele>
        <time>2017-07-30T13:04:55Z</time>
      </trkpt>
      <trkpt lat="45.66406" lon="4.46184">
        <ele>751</ele>
        <time>2017-07-30T13:06:55Z</time>
      </trkpt>
      <trkpt lat="45.6645" lon="4.4622">
        <ele>758</ele>
        <time>2017-07-30T13:08:55Z</time>
      </trkpt>
      <trkpt lat="45.66473" lon="4.46248">
        <ele>762</ele>
        <time>2017-07-30T13:10:55Z</time>
      </trkpt>
      <trkpt lat="45.66489" lon="4.46296">
        <ele>768</ele>
        <time>2017-07-30T13:12:55Z</time>
      </trkpt>
      <trkpt lat="45.66494" lon="4.46327">
        <ele>771</ele>
        <time>2017-07-30T13:14:55Z</time>
      </trkpt>
      <trkpt lat="45.66529" lon="4.46352">
        <ele>770</ele>
        <time>2017-07-30T13:16:55Z</time>
      </trkpt>
      <trkpt lat="45.6654" lon="4.46369">
        <ele>770</ele>
        <time>2017-07-30T13:18:55Z</time>
      </trkpt>
      <trkpt lat="45.66572" lon="4.464">
        <ele>770</ele>
        <time>2017-07-30T13:20:55Z</time>
      </trkpt>
      <trkpt lat="45.66601" lon="4.4644">
        <ele>770</ele>
        <time>2017-07-30T13:22:55Z</time>
      </trkpt>
      <trkpt lat="45.66602" lon="4.46477">
        <ele>771</ele>
        <time>2017-07-30T13:24:55Z</time>
      </trkpt>
      <trkpt lat="45.66593" lon="4.46504">
        <ele>772</ele>
        <time>2017-07-30T13:26:55Z</time>
      </trkpt>
      <trkpt lat="45.66578" lon="4.4653">
        <ele>768</ele>
        <time>2017-07-30T13:28:55Z</time>
      </trkpt>
      <trkpt lat="45.6661" lon="4.46569">
        <ele>768</ele>
        <time>2017-07-30T13:30:55Z</time>
      </trkpt>
      <trkpt lat="45.66635" lon="4.46627">
        <ele>771</ele>
        <time>2017-07-30T13:32:55Z</time>
      </trkpt>
      <trkpt lat="45.66686" lon="4.46656">
        <ele>780</ele>
        <time>2017-07-30T13:34:55Z</time>
      </trkpt>
      <trkpt lat="45.66727" lon="4.46814">
        <ele>789</ele>
        <time>2017-07-30T13:36:55Z</time>
      </trkpt>
      <trkpt lat="45.66785" lon="4.46884">
        <ele>789</ele>
        <time>2017-07-30T13:38:55Z</time>
      </trkpt>
      <trkpt lat="45.66826" lon="4.46914">
        <ele>785</ele>
        <time>2017-07-30T13:40:55Z</time>
      </trkpt>
      <trkpt lat="45.66866" lon="4.46963">
        <ele>783</ele>
        <time>2017-07-30T13:42:55Z</time>
      </trkpt>
      <trkpt lat="45.6693" lon="4.4707">
        <ele>781</ele>
        <time>2017-07-30T13:44:55Z</time>
      </trkpt>
      <trkpt lat="45.66941" lon="4.47107">
        <ele>776</ele>
        <time>2017-07-30T13:46:55Z</time>
      </trkpt>
      <trkpt lat="45.66965" lon="4.47127">
        <ele>772</ele>
        <time>2017-07-30T13:48:55Z</time>
      </trkpt>
      <trkpt lat="45.6701" lon="4.47143">
        <ele>767</ele>
        <time>2017-07-30T13:50:55Z</time>
      </trkpt>
      <trkpt lat="45.67042" lon="4.47173">
        <ele>762</ele>
        <time>2017-07-30T13:52:55Z</time>
      </trkpt>
      <trkpt lat="45.67085" lon="4.47254">
        <ele>760</ele>
        <time>2017-07-30T13:54:55Z</time>
      </trkpt>
      <trkpt lat="45.67139" lon="4.47369">
        <ele>763</ele>
        <time>2017-07-30T13:56:55Z</time>
      </trkpt>
      <trkpt lat="45.67184" lon="4.47489">
        <ele>765</ele>
        <time>2017-07-30T13:58:55Z</time>
      </trkpt>
      <trkpt lat="45.67194" lon="4.47567">
        <ele>766</ele>
        <time>2017-07-30T14:00:55Z</time>
      </trkpt>
      <trkpt lat="45.67239" lon="4.47676">
        <ele>768</ele>
        <time>2017-07-30T14:02:55Z</time>
      </trkpt>
      <trkpt lat="45.67275" lon="4.47882">
        <ele>767</ele>
        <time>2017-07-30T14:04:55Z</time>
      </trkpt>
      <trkpt lat="45.67268" lon="4.48049">
        <ele>767</ele>
        <time>2017-07-30T14:06:55Z</time>
      </trkpt>
      <trkpt lat="45.67308" lon="4.48133">
        <ele>767</ele>
        <time>2017-07-30T14:08:55Z</time>
      </trkpt>
      <trkpt lat="45.67328" lon="4.48242">
        <ele>770</ele>
        <time>2017-07-30T14:10:55Z</time>
      </trkpt>
      <trkpt lat="45.67412" lon="4.48365">
        <ele>781</ele>
        <time>2017-07-30T14:12:55Z</time>
      </trkpt>
      <trkpt lat="45.67398" lon="4.48412">
        <ele>782</ele>
        <time>2017-07-30T14:14:55Z</time>
      </trkpt>
      <trkpt lat="45.67398" lon="4.48515">
        <ele>783</ele>
        <time>2017-07-30T14:16:55Z</time>
      </trkpt>
      <trkpt lat="45.6741" lon="4.48607">
        <ele>782</ele>
        <time>2017-07-30T14:18:55Z</time>
      </trkpt>
      <trkpt lat="45.67436" lon="4.48618">
        <ele>785</ele>
        <time>2017-07-30T14:20:55Z</time>
      </trkpt>
      <trkpt lat="45.67443" lon="4.48646">
        <ele>785</ele>
        <time>2017-07-30T14:22:55Z</time>
      </trkpt>
      <trkpt lat="45.67614" lon="4.48635">
        <ele>797</ele>
        <time>2017-07-30T14:24:55Z</time>
      </trkpt>
      <trkpt lat="45.67654" lon="4.48605">
        <ele>796</ele>
        <time>2017-07-30T14:26:55Z</time>
      </trkpt>
      <trkpt lat="45.67659" lon="4.48633">
        <ele>797</ele>
        <time>2017-07-30T14:28:55Z</time>
      </trkpt>
      <trkpt lat="45.67731" lon="4.48736">
        <ele>794</ele>
        <time>2017-07-30T14:30:55Z</time>
      </trkpt>
      <trkpt lat="45.67702" lon="4.48783">
        <ele>798</ele>
        <time>2017-07-30T14:32:55Z</time>
      </trkpt>
      <trkpt lat="45.67642" lon="4.48918">
        <ele>806</ele>
        <time>2017-07-30T14:34:55Z</time>
      </trkpt>
      <trkpt lat="45.67635" lon="4.49009">
        <ele>805</ele>
        <time>2017-07-30T14:36:55Z</time>
      </trkpt>
      <trkpt lat="45.67597" lon="4.49081">
        <ele>805</ele>
        <time>2017-07-30T14:38:55Z</time>
      </trkpt>
      <trkpt lat="45.67517" lon="4.49275">
        <ele>814</ele>
        <time>2017-07-30T14:40:55Z</time>
      </trkpt>
      <trkpt lat="45.67564" lon="4.49315">
        <ele>812</ele>
        <time>2017-07-30T14:42:55Z</time>
      </trkpt>
      <trkpt lat="45.67585" lon="4.49519">
        <ele>828</ele>
        <time>2017-07-30T14:44:55Z</time>
      </trkpt>
      <trkpt lat="45.67554" lon="4.49781">
        <ele>855</ele>
        <time>2017-07-30T14:46:55Z</time>
      </trkpt>
      <trkpt lat="45.67561" lon="4.49985">
        <ele>860</ele>
        <time>2017-07-30T14:48:55Z</time>
      </trkpt>
      <trkpt lat="45.67551" lon="4.50017">
        <ele>865</ele>
        <time>2017-07-30T14:50:55Z</time>
      </trkpt>
      <trkpt lat="45.67555" lon="4.50107">
        <ele>873</ele>
        <time>2017-07-30T14:52:55Z</time>
      </trkpt>
      <trkpt lat="45.67572" lon="4.5024">
        <ele>880</ele>
        <time>2017-07-30T14:54:55Z</time>
      </trkpt>
      <trkpt lat="45.67629" lon="4.50382">
        <ele>891</ele>
        <time>2017-07-30T14:56:55Z</time>
      </trkpt>
      <trkpt lat="45.6772" lon="4.50519">
        <ele>899</ele>
        <time>2017-07-30T14:58:55Z</time>
      </trkpt>
      <trkpt lat="45.67803" lon="4.50581">
        <ele>903</ele>
        <time>2017-07-30T15:00:55Z</time>
      </trkpt>
      <trkpt lat="45.67911" lon="4.50654">
        <ele>899</ele>
        <time>2017-07-30T15:02:55Z</time>
      </trkpt>
      <trkpt lat="45.67968" lon="4.508">
        <ele>891</ele>
        <time>2017-07-30T15:04:55Z</time>
      </trkpt>
      <trkpt lat="45.6801" lon="4.51008">
        <ele>882</ele>
        <time>2017-07-30T15:06:55Z</time>
      </trkpt>
      <trkpt lat="45.68121" lon="4.51099">
        <ele>875</ele>
        <time>2017-07-30T15:08:55Z</time>
      </trkpt>
      <trkpt lat="45.68229" lon="4.51285">
        <ele>865</ele>
        <time>2017-07-30T15:10:55Z</time>
      </trkpt>
      <trkpt lat="45.68245" lon="4.5121">
        <ele>868</ele>
        <time>2017-07-30T15:12:55Z</time>
      </trkpt>
      <trkpt lat="45.68251" lon="4.50882">
        <ele>871</ele>
        <time>2017-07-30T15:14:55Z</time>
      </trkpt>
      <trkpt lat="45.68233" lon="4.50667">
        <ele>867</ele>
        <time>2017-07-30T15:16:55Z</time>
      </trkpt>
      <trkpt lat="45.68274" lon="4.505">
        <ele>862</ele>
        <time>2017-07-30T15:18:55Z</time>
      </trkpt>
      <trkpt lat="45.68332" lon="4.5039">
        <ele>846</ele>
        <time>2017-07-30T15:20:55Z</time>
      </trkpt>
      <trkpt lat="45.68341" lon="4.50307">
        <ele>843</ele>
        <time>2017-07-30T15:22:55Z</time>
      </trkpt>
      <trkpt lat="45.68332" lon="4.5012">
        <ele>841</ele>
        <time>2017-07-30T15:24:55Z</time>
      </trkpt>
      <trkpt lat="45.68323" lon="4.50039">
        <ele>834</ele>
        <time>2017-07-30T15:26:55Z</time>
      </trkpt>
      <trkpt lat="45.68254" lon="4.49878">
        <ele>831</ele>
        <time>2017-07-30T15:28:55Z</time>
      </trkpt>
      <trkpt lat="45.68227" lon="4.4973">
        <ele>817</ele>
        <time>2017-07-30T15:30:55Z</time>
      </trkpt>
      <trkpt lat="45.68217" lon="4.4968">
        <ele>814</ele>
        <time>2017-07-30T15:32:55Z</time>
      </trkpt>
      <trkpt lat="45.6817" lon="4.49365">
        <ele>804</ele>
        <time>2017-07-30T15:34:55Z</time>
      </trkpt>
      <trkpt lat="45.68173" lon="4.48966">
        <ele>798</ele>
        <time>2017-07-30T15:36:55Z</time>
      </trkpt>
      <trkpt lat="45.68196" lon="4.48938">
        <ele>801</ele>
        <time>2017-07-30T15:38:55Z</time>
      </trkpt>
      <trkpt lat="45.68197" lon="4.48871">
        <ele>803</ele>
        <time>2017-07-30T15:40:55Z</time>
      </trkpt>
      <trkpt lat="45.68245" lon="4.48863">
        <ele>813</ele>
        <time>2017-07-30T15:42:55Z</time>
      </trkpt>
      <trkpt lat="45.68265" lon="4.48891">
        <ele>812</ele>
        <time>2017-07-30T15:44:55Z</time>
      </trkpt>
      <trkpt lat="45.68292" lon="4.48871">
        <ele>812</ele>
        <time>2017-07-30T15:46:55Z</time>
      </trkpt>
      <trkpt lat="45.68295" lon="4.48757">
        <ele>816</ele>
        <time>2017-07-30T15:48:55Z</time>
      </trkpt>
      <trkpt lat="45.68281" lon="4.487">
        <ele>821</ele>
        <time>2017-07-30T15:50:55Z</time>
      </trkpt>
      <trkpt lat="45.68242" lon="4.4865">
        <ele>828</ele>
        <time>2017-07-30T15:52:55Z</time>
      </trkpt>
      <trkpt lat="45.68224" lon="4.48515">
        <ele>831</ele>
        <time>2017-07-30T15:54:55Z</time>
      </trkpt>
      <trkpt lat="45.68182" lon="4.48412">
        <ele>820</ele>
        <time>2017-07-30T15:56:55Z</time>
      </trkpt>
      <trkpt lat="45.68136" lon="4.48386">
        <ele>811</ele>
        <time>2017-07-30T15:58:55Z</time>
      </trkpt>
      <trkpt lat="45.68182" lon="4.48328">
        <ele>807</ele>
        <time>2017-07-30T16:00:55Z</time>
      </trkpt>
      <trkpt lat="45.68212" lon="4.48197">
        <ele>801</ele>
        <time>2017-07-30T16:02:55Z</time>
      </trkpt>
      <trkpt lat="45.68253" lon="4.48019">
        <ele>790</ele>
        <time>2017-07-30T16:04:55Z</time>
      </trkpt>
      <trkpt lat="45.68262" lon="4.47758">
        <ele>786</ele>
        <time>2017-07-30T16:06:55Z</time>
      </trkpt>
      <trkpt lat="45.68263" lon="4.47702">
        <ele>786</ele>
        <time>2017-07-30T16:08:55Z</time>
      </trkpt>
      <trkpt lat="45.68191" lon="4.47545">
        <ele>777</ele>
        <time>2017-07-30T16:10:55Z</time>
      </trkpt>
      <trkpt lat="45.68068" lon="4.47425">
        <ele>776</ele>
        <time>2017-07-30T16:12:55Z</time>
      </trkpt>
      <trkpt lat="45.68064" lon="4.47373">
        <ele>776</ele>
        <time>2017-07-30T16:14:55Z</time>
      </trkpt>
      <trkpt lat="45.68119" lon="4.47219">
        <ele>760</ele>
        <time>2017-07-30T16:16:55Z</time>
      </trkpt>
      <trkpt lat="45.68167" lon="4.46979">
        <ele>731</ele>
        <time>2017-07-30T16:18:55Z</time>
      </trkpt>
      <trkpt lat="45.68176" lon="4.46876">
        <ele>717</ele>
        <time>2017-07-30T16:20:55Z</time>
      </trkpt>
      <trkpt lat="45.68203" lon="4.46781">
        <ele>703</ele>
        <time>2017-07-30T16:22:55Z</time>
      </trkpt>
      <trkpt lat="45.6828" lon="4.46695">
        <ele>671</ele>
        <time>2017-07-30T16:24:55Z</time>
      </trkpt>
      <trkpt lat="45.6837" lon="4.46549">
        <ele>635</ele>
        <time>2017-07-30T16:26:55Z</time>
      </trkpt>
      <trkpt lat="45.68425" lon="4.4641">
        <ele>610</ele>
        <time>2017-07-30T16:28:55Z</time>
      </trkpt>
      <trkpt lat="45.68424" lon="4.46318">
        <ele>610</ele>
        <time>2017-07-30T16:30:55Z</time>
      </trkpt>
      <trkpt lat="45.68483" lon="4.46286">
        <ele>592</ele>
        <time>2017-07-30T16:32:55Z</time>
      </trkpt>
      <trkpt lat="45.68518" lon="4.4629">
        <ele>579</ele>
        <time>2017-07-30T16:34:55Z</time>
      </trkpt>
      <trkpt lat="45.68551" lon="4.46193">
        <ele>575</ele>
        <time>2017-07-30T16:36:55Z</time>
      </trkpt>
      <trkpt lat="45.68584" lon="4.4618">
        <ele>563</ele>
        <time>2017-07-30T16:38:55Z</time>
      </trkpt>
      <trkpt lat="45.6874" lon="4.45856">
        <ele>522</ele>
        <time>2017-07-30T16:40:55Z</time>
      </trkpt>
      <trkpt lat="45.68761" lon="4.45863">
        <ele>518</ele>
        <time>2017-07-30T16:42:55Z</time>
      </trkpt>
      <trkpt lat="45.68834" lon="4.45829">
        <ele>505</ele>
        <time>2017-07-30T16:44:55Z</time>
      </trkpt>
      <trkpt lat="45.68827" lon="4.45687">
        <ele>509</ele>
        <time>2017-07-30T16:46:55Z</time>
      </trkpt>
      <trkpt lat="45.68837" lon="4.45603">
        <ele>502</ele>
        <time>2017-07-30T16:48:55Z</time>
      </trkpt>
      <trkpt lat="45.68797" lon="4.45487">
        <ele>495</ele>
        <time>2017-07-30T16:50:55Z</time>
      </trkpt>
      <trkpt lat="45.68771" lon="4.45301">
        <ele>482</ele>
        <time>2017-07-30T16:52:55Z</time>
      </trkpt>
      <trkpt lat="45.68717" lon="4.45172">
        <ele>483</ele>
        <time>2017-07-30T16:54:55Z</time>
      </trkpt>
      <trkpt lat="45.68677" lon="4.45163">
        <ele>488</ele>
        <time>2017-07-30T16:56:55Z</time>
      </trkpt>
      <trkpt lat="45.68645" lon="4.45161">
        <ele>493</ele>
        <time>2017-07-30T16:58:55Z</time>
      </trkpt>
      <trkpt lat="45.68516" lon="4.45221">
        <ele>518</ele>
        <time>2017-07-30T17:00:55Z</time>
      </trkpt>
      <trkpt lat="45.68455" lon="4.45204">
        <ele>523</ele>
        <time>2017-07-30T17:02:55Z</time>
      </trkpt>
      <trkpt lat="45.68413" lon="4.45202">
        <ele>527</ele>
        <time>2017-07-30T17:04:55Z</time>
      </trkpt>
      <trkpt lat="45.68307" lon="4.45135">
        <ele>524</ele>
        <time>2017-07-30T17:06:55Z</time>
      </trkpt>
      <trkpt lat="45.6826" lon="4.45129">
        <ele>527</ele>
        <time>2017-07-30T17:08:55Z</time>
      </trkpt>
      <trkpt lat="45.6823" lon="4.45041">
        <ele>531</ele>
        <time>2017-07-30T17:10:55Z</time>
      </trkpt>
      <trkpt lat="45.68158" lon="4.44996">
        <ele>545</ele>
        <time>2017-07-30T17:12:55Z</time>
      </trkpt>
      <trkpt lat="45.6816" lon="4.44957">
        <ele>550</ele>
        <time>2017-07-30T17:14:55Z</time>
      </trkpt>
      <trkpt lat="45.68202" lon="4.44891">
        <ele>554</ele>
        <time>2017-07-30T17:16:55Z</time>
      </trkpt>
      <trkpt lat="45.6819" lon="4.44835">
        <ele>563</ele>
        <time>2017-07-30T17:18:55Z</time>
      </trkpt>
      <trkpt lat="45.68128" lon="4.44781">
        <ele>571</ele>
        <time>2017-07-30T17:20:55Z</time>
      </trkpt>
      <trkpt lat="45.68097" lon="4.44741">
        <ele>573</ele>
        <time>2017-07-30T17:22:55Z</time>
      </trkpt>
      <trkpt lat="45.68058" lon="4.44717">
        <ele>575</ele>
        <time>2017-07-30T17:24:55Z</time>
      </trkpt>
      <trkpt lat="45.68014" lon="4.44878">
        <ele>587</ele>
        <time>2017-07-30T17:26:55Z</time>
      </trkpt>
      <trkpt lat="45.67996" lon="4.44998">
        <ele>598</ele>
        <time>2017-07-30T17:28:55Z</time>
      </trkpt>
      <trkpt lat="45.67935" lon="4.45118">
        <ele>614</ele>
        <time>2017-07-30T17:30:55Z</time>
      </trkpt>
      <trkpt lat="45.67888" lon="4.45163">
        <ele>627</ele>
        <time>2017-07-30T17:32:55Z</time>
      </trkpt>
      <trkpt lat="45.67822" lon="4.45266">
        <ele>635</ele>
        <time>2017-07-30T17:34:55Z</time>
      </trkpt>
      <trkpt lat="45.67798" lon="4.45356">
        <ele>635</ele>
        <time>2017-07-30T17:36:55Z</time>
      </trkpt>
      <trkpt lat="45.67782" lon="4.45498">
        <ele>645</ele>
        <time>2017-07-30T17:38:55Z</time>
      </trkpt>
      <trkpt lat="45.67803" lon="4.45702">
        <ele>662</ele>
        <time>2017-07-30T17:40:55Z</time>
      </trkpt>
      <trkpt lat="45.67843" lon="4.45773">
        <ele>666</ele>
        <time>2017-07-30T17:42:55Z</time>
      </trkpt>
      <trkpt lat="45.67857" lon="4.45839">
        <ele>676</ele>
        <time>2017-07-30T17:44:55Z</time>
      </trkpt>
      <trkpt lat="45.67918" lon="4.4594">
        <ele>679</ele>
        <time>2017-07-30T17:46:55Z</time>
      </trkpt>
      <trkpt lat="45.67938" lon="4.46088">
        <ele>704</ele>
        <time>2017-07-30T17:48:55Z</time>
      </trkpt>
      <trkpt lat="45.67944" lon="4.46217">
        <ele>724</ele>
        <time>2017-07-30T17:50:55Z</time>
      </trkpt>
      <trkpt lat="45.67878" lon="4.46213">
        <ele>726</ele>
        <time>2017-07-30T17:52:55Z</time>
      </trkpt>
      <trkpt lat="45.67849" lon="4.46221">
        <ele>728</ele>
        <time>2017-07-30T17:54:55Z</time>
      </trkpt>
      <trkpt lat="45.67711" lon="4.46206">
        <ele>734</ele>
        <time>2017-07-30T17:56:55Z</time>
      </trkpt>
      <trkpt lat="45.67615" lon="4.4615">
        <ele>742</ele>
        <time>2017-07-30T17:58:55Z</time>
      </trkpt>
      <trkpt lat="45.67597" lon="4.46086">
        <ele>742</ele>
        <time>2017-07-30T18:00:55Z</time>
      </trkpt>
      <trkpt lat="45.67588" lon="4.46022">
        <ele>744</ele>
        <time>2017-07-30T18:02:55Z</time>
      </trkpt>
      <trkpt lat="45.67564" lon="4.46062">
        <ele>753</ele>
        <time>2017-07-30T18:04:55Z</time>
      </trkpt>
      <trkpt lat="45.6753" lon="4.46208">
        <ele>769</ele>
        <time>2017-07-30T18:06:55Z</time>
      </trkpt>
      <trkpt lat="45.67499" lon="4.46249">
        <ele>775</ele>
        <time>2017-07-30T18:08:55Z</time>
      </trkpt>
      <trkpt lat="45.67555" lon="4.46352">
        <ele>779</ele>
        <time>2017-07-30T18:10:55Z</time>
      </trkpt>
      <trkpt lat="45.67554" lon="4.4641">
        <ele>783</ele>
        <time>2017-07-30T18:12:55Z</time>
      </trkpt>
      <trkpt lat="45.67509" lon="4.46517">
        <ele>772</ele>
        <time>2017-07-30T18:14:55Z</time>
      </trkpt>
      <trkpt lat="45.6747" lon="4.46466">
        <ele>768</ele>
        <time>2017-07-30T18:16:55Z</time>
      </trkpt>
      <trkpt lat="45.67485" lon="4.46599">
        <ele>758</ele>
        <time>2017-07-30T18:18:55Z</time>
      </trkpt>
      <trkpt lat="45.67476" lon="4.46685">
        <ele>749</ele>
        <time>2017-07-30T18:20:55Z</time>
      </trkpt>
      <trkpt lat="45.67449" lon="4.46749">
        <ele>741</ele>
        <time>2017-07-30T18:22:55Z</time>
      </trkpt>
      <trkpt lat="45.6744" lon="4.46947">
        <ele>738</ele>
        <time>2017-07-30T18:24:55Z</time>
      </trkpt>
      <trkpt lat="45.67401" lon="4.46883">
        <ele>734</ele>
        <time>2017-07-30T18:26:55Z</time>
      </trkpt>
      <trkpt lat="45.67388" lon="4.46816">
        <ele>732</ele>
        <time>2017-07-30T18:28:55Z</time>
      </trkpt>
      <trkpt lat="45.67298" lon="4.4669">
        <ele>724</ele>
        <time>2017-07-30T18:30:55Z</time>
      </trkpt>
      <trkpt lat="45.67218" lon="4.46503">
        <ele>728</ele>
        <time>2017-07-30T18:32:55Z</time>
      </trkpt>
      <trkpt lat="45.672" lon="4.46473">
        <ele>727</ele>
        <time>2017-07-30T18:34:55Z</time>
      </trkpt>
      <trkpt lat="45.67166" lon="4.46413">
        <ele>726</ele>
        <time>2017-07-30T18:36:55Z</time>
      </trkpt>
      <trkpt lat="45.67103" lon="4.46378">
        <ele>722</ele>
        <time>2017-07-30T18:38:55Z</time>
      </trkpt>
      <trkpt lat="45.67073" lon="4.46323">
        <ele>723</ele>
        <time>2017-07-30T18:40:55Z</time>
      </trkpt>
      <trkpt lat="45.66907" lon="4.46162">
        <ele>714</ele>
        <time>2017-07-30T18:42:55Z</time>
      </trkpt>
      <trkpt lat="45.66829" lon="4.46046">
        <ele>709</ele>
        <time>2017-07-30T18:44:55Z</time>
      </trkpt>
      <trkpt lat="45.66803" lon="4.46001">
        <ele>709</ele>
        <time>2017-07-30T18:46:55Z</time>
      </trkpt>
      <trkpt lat="45.66772" lon="4.45973">
        <ele>704</ele>
        <time>2017-07-30T18:48:55Z</time>
      </trkpt>
      <trkpt lat="45.66712" lon="4.4584">
        <ele>699</ele>
        <time>2017-07-30T18:50:55Z</time>
      </trkpt>
      <trkpt lat="45.66641" lon="4.45786">
        <ele>692</ele>
        <time>2017-07-30T18:52:55Z</time>
      </trkpt>
      <trkpt lat="45.66592" lon="4.45745">
        <ele>691</ele>
        <time>2017-07-30T18:54:55Z</time>
      </trkpt>
      <trkpt lat="45.66586" lon="4.45574">
        <ele>694</ele>
        <time>2017-07-30T18:56:55Z</time>
      </trkpt>
      <trkpt lat="45.66617" lon="4.45522">
        <ele>692</ele>
        <time>2017-07-30T18:58:55Z</time>
      </trkpt>
      <trkpt lat="45.66628" lon="4.45473">
        <ele>690</ele>
        <time>2017-07-30T19:00:55Z</time>
      </trkpt>
      <trkpt lat="45.66623" lon="4.45432">
        <ele>688</ele>
        <time>2017-07-30T19:02:55Z</time>
      </trkpt>
      <trkpt lat="45.66598" lon="4.45393">
        <ele>687</ele>
        <time>2017-07-30T19:04:55Z</time>
      </trkpt>
      <trkpt lat="45.6658" lon="4.45331">
        <ele>680</ele>
        <time>2017-07-30T19:06:55Z</time>
      </trkpt>
      <trkpt lat="45.66538" lon="4.45295">
        <ele>679</ele>
        <time>2017-07-30T19:08:55Z</time>
      </trkpt>
      <trkpt lat="45.66553" lon="4.45258">
        <ele>678</ele>
        <time>2017-07-30T19:10:55Z</time>
      </trkpt>
      <trkpt lat="45.66542" lon="4.45198">
        <ele>678</ele>
        <time>2017-07-30T19:12:55Z</time>
      </trkpt>
      <trkpt lat="45.66532" lon="4.45117">
        <ele>678</ele>
        <time>2017-07-30T19:14:55Z</time>
      </trkpt>
      <trkpt lat="45.66517" lon="4.45078">
        <ele>676</ele>
        <time>2017-07-30T19:16:55Z</time>
      </trkpt>
      <trkpt lat="45.6652" lon="4.44969">
        <ele>670</ele>
        <time>2017-07-30T19:18:55Z</time>
      </trkpt>
      <trkpt lat="45.66446" lon="4.4484">
        <ele>667</ele>
        <time>2017-07-30T19:20:55Z</time>
      </trkpt>
      <trkpt lat="45.66425" lon="4.4475">
        <ele>667</ele>
        <time>2017-07-30T19:22:55Z</time>
      </trkpt>
      <trkpt lat="45.66416" lon="4.44623">
        <ele>669</ele>
        <time>2017-07-30T19:24:55Z</time>
      </trkpt>
      <trkpt lat="45.66373" lon="4.44518">
        <ele>672</ele>
        <time>2017-07-30T19:26:55Z</time>
      </trkpt>
      <trkpt lat="45.66362" lon="4.44449">
        <ele>675</ele>
        <time>2017-07-30T19:28:55Z</time>
      </trkpt>
      <trkpt lat="45.66313" lon="4.44434">
        <ele>673</ele>
        <time>2017-07-30T19:30:55Z</time>
      </trkpt>
      <trkpt lat="45.66281" lon="4.44406">
        <ele>671</ele>
        <time>2017-07-30T19:32:55Z</time>
      </trkpt>
      <trkpt lat="45.66256" lon="4.44374">
        <ele>671</ele>
        <time>2017-07-30T19:34:55Z</time>
      </trkpt>
      <trkpt lat="45.66247" lon="4.44314">
        <ele>671</ele>
        <time>2017-07-30T19:36:55Z</time>
      </trkpt>
      <trkpt lat="45.66205" lon="4.4423">
        <ele>670</ele>
        <time>2017-07-30T19:38:55Z</time>
      </trkpt>
      <trkpt lat="45.66152" lon="4.44177">
        <ele>663</ele>
        <time>2017-07-30T19:40:55Z</time>
      </trkpt>
      <trkpt lat="45.66145" lon="4.44143">
        <ele>664</ele>
        <time>2017-07-30T19:42:55Z</time>
      </trkpt>
      <trkpt lat="45.66125" lon="4.4413">
        <ele>661</ele>
        <time>2017-07-30T19:44:55Z</time>
      </trkpt>
      <trkpt lat="45.66185" lon="4.44018">
        <ele>679</ele>
        <time>2017-07-30T19:46:55Z</time>
      </trkpt>
      <trkpt lat="45.66236" lon="4.43988">
        <ele>686</ele>
        <time>2017-07-30T19:48:55Z</time>
      </trkpt>
      <trkpt lat="45.66297" lon="4.44185">
        <ele>688</ele>
        <time>2017-07-30T19:50:55Z</time>
      </trkpt>
      <trkpt lat="45.66314" lon="4.44084">
        <ele>692</ele>
        <time>2017-07-30T19:52:55Z</time>
      </trkpt>
      <trkpt lat="45.66341" lon="4.43996">
        <ele>694</ele>
        <time>2017-07-30T19:54:55Z</time>
      </trkpt>
      <trkpt lat="45.6641" lon="4.43859">
        <ele>694</ele>
        <time>2017-07-30T19:56:55Z</time>
      </trkpt>
      <trkpt lat="45.66465" lon="4.43893">
        <ele>697</ele>
        <time>2017-07-30T19:58:55Z</time>
      </trkpt>
      <trkpt lat="45.66492" lon="4.43902">
        <ele>700</ele>
        <time>2017-07-30T20:00:55Z</time>
      </trkpt>
      <trkpt lat="45.66566" lon="4.43908">
        <ele>704</ele>
        <time>2017-07-30T20:02:55Z</time>
      </trkpt>
      <trkpt lat="45.66588" lon="4.4393">
        <ele>708</ele>
        <time>2017-07-30T20:04:55Z</time>
      </trkpt>
      <trkpt lat="45.66626" lon="4.43987">
        <ele>716</ele>
        <time>2017-07-30T20:06:55Z</time>
      </trkpt>
      <trkpt lat="45.66663" lon="4.44032">
        <ele>720</ele>
        <time>2017-07-30T20:08:55Z</time>
      </trkpt>
      <trkpt lat="45.6669" lon="4.44043">
        <ele>717</ele>
        <time>2017-07-30T20:10:55Z</time>
      </trkpt>
      <trkpt lat="45.66729" lon="4.44127">
        <ele>718</ele>
        <time>2017-07-30T20:12:55Z</time>
      </trkpt>
      <trkpt lat="45.66774" lon="4.44187">
        <ele>718</ele>
        <time>2017-07-30T20:14:55Z</time>
      </trkpt>
      <trkpt lat="45.66831" lon="4.44105">
        <ele>708</ele>
        <time>2017-07-30T20:16:55Z</time>
      </trkpt>
      <trkpt lat="45.66788" lon="4.44032">
        <ele>705</ele>
        <time>2017-07-30T20:18:55Z</time>
      </trkpt>
      <trkpt lat="45.66771" lon="4.43987">
        <ele>702</ele>
        <time>2017-07-30T20:20:55Z</time>
      </trkpt>
      <trkpt lat="45.66765" lon="4.43906">
        <ele>688</ele>
        <time>2017-07-30T20:22:55Z</time>
      </trkpt>
      <trkpt lat="45.66705" lon="4.43784">
        <ele>670</ele>
        <time>2017-07-30T20:24:55Z</time>
      </trkpt>
      <trkpt lat="45.66642" lon="4.43721">
        <ele>662</ele>
        <time>2017-07-30T20:26:55Z</time>
      </trkpt>
      <trkpt lat="45.66605" lon="4.43715">
        <ele>663</ele>
        <time>2017-07-30T20:28:55Z</time>
      </trkpt>
      <trkpt lat="45.66573" lon="4.43687">
        <ele>662</ele>
        <time>2017-07-30T20:30:55Z</time>
      </trkpt>
      <trkpt lat="45.66563" lon="4.43644">
        <ele>661</ele>
        <time>2017-07-30T20:32:55Z</time>
      </trkpt>
      <trkpt lat="45.66597" lon="4.4353">
        <ele>653</ele>
        <time>2017-07-30T20:34:55Z</time>
      </trkpt>
      <trkpt lat="45.66636" lon="4.43445">
        <ele>646</ele>
        <time>2017-07-30T20:36:55Z</time>
      </trkpt>
      <trkpt lat="45.66651" lon="4.43397">
        <ele>645</ele>
        <time>2017-07-30T20:38:55Z</time>
      </trkpt>
      <trkpt lat="45.66686" lon="4.43288">
        <ele>645</ele>
        <time>2017-07-30T20:40:55Z</time>
      </trkpt>
      <trkpt lat="45.66693" lon="4.4323">
        <ele>646</ele>
        <time>2017-07-30T20:42:55Z</time>
      </trkpt>
      <trkpt lat="45.66681" lon="4.43136">
        <ele>653</ele>
        <time>2017-07-30T20:44:55Z</time>
      </trkpt>
      <trkpt lat="45.66653" lon="4.43018">
        <ele>659</ele>
        <time>2017-07-30T20:46:55Z</time>
      </trkpt>
      <trkpt lat="45.66624" lon="4.4289">
        <ele>660</ele>
        <time>2017-07-30T20:48:55Z</time>
      </trkpt>
      <trkpt lat="45.66595" lon="4.42825">
        <ele>659</ele>
        <time>2017-07-30T20:50:55Z</time>
      </trkpt>
      <trkpt lat="45.66563" lon="4.42802">
        <ele>661</ele>
        <time>2017-07-30T20:52:55Z</time>
      </trkpt>
      <trkpt lat="45.66516" lon="4.42772">
        <ele>664</ele>
        <time>2017-07-30T20:54:55Z</time>
      </trkpt>
      <trkpt lat="45.66424" lon="4.42722">
        <ele>665</ele>
        <time>2017-07-30T20:56:55Z</time>
      </trkpt>
      <trkpt lat="45.66218" lon="4.4263">
        <ele>672</ele>
        <time>2017-07-30T20:58:55Z</time>
      </trkpt>
      <trkpt lat="45.66144" lon="4.42619">
        <ele>675</ele>
        <time>2017-07-30T21:00:55Z</time>
      </trkpt>
      <trkpt lat="45.66057" lon="4.42568">
        <ele>676</ele>
        <time>2017-07-30T21:02:55Z</time>
      </trkpt>
      <trkpt lat="45.66124" lon="4.42195">
        <ele>651</ele>
        <time>2017-07-30T21:04:55Z</time>
      </trkpt>
      <trkpt lat="45.66076" lon="4.42162">
        <ele>651</ele>
        <time>2017-07-30T21:06:55Z</time>
      </trkpt>
      <trkpt lat="45.66044" lon="4.42117">
        <ele>650</ele>
        <time>2017-07-30T21:08:55Z</time>
      </trkpt>
      <trkpt lat="45.66026" lon="4.42102">
        <ele>649</ele>
        <time>2017-07-30T21:10:55Z</time>
      </trkpt>
      <trkpt lat="45.66065" lon="4.41974">
        <ele>637</ele>
        <time>2017-07-30T21:12:55Z</time>
      </trkpt>
      <trkpt lat="45.66085" lon="4.41954">
        <ele>635</ele>
        <time>2017-07-30T21:14:55Z</time>
      </trkpt>
      <trkpt lat="45.66092" lon="4.41894">
        <ele>634</ele>
        <time>2017-07-30T21:16:55Z</time>
      </trkpt>
      <trkpt lat="45.66094" lon="4.41817">
        <ele>633</ele>
        <time>2017-07-30T21:18:55Z</time>
      </trkpt>
      <trkpt lat="45.6613" lon="4.41733">
        <ele>629</ele>
        <time>2017-07-30T21:20:55Z</time>
      </trkpt>
      <trkpt lat="45.66193" lon="4.41733">
        <ele>625</ele>
        <time>2017-07-30T21:22:55Z</time>
      </trkpt>
      <trkpt lat="45.66227" lon="4.4172">
        <ele>621</ele>
        <time>2017-07-30T21:24:55Z</time>
      </trkpt>
      <trkpt lat="45.66244" lon="4.41723">
        <ele>619</ele>
        <time>2017-07-30T21:26:55Z</time>
      </trkpt>
      <trkpt lat="45.66263" lon="4.41735">
        <ele>617</ele>
        <time>2017-07-30T21:28:55Z</time>
      </trkpt>
      <trkpt lat="45.66299" lon="4.41723">
        <ele>610</ele>
        <time>2017-07-30T21:30:55Z</time>
      </trkpt>
      <trkpt lat="45.66338" lon="4.41733">
        <ele>607</ele>
        <time>2017-07-30T21:32:55Z</time>
      </trkpt>
      <trkpt lat="45.6637" lon="4.41727">
        <ele>603</ele>
        <time>2017-07-30T21:34:55Z</time>
      </trkpt>
      <trkpt lat="45.66437" lon="4.41686">
        <ele>592</ele>
        <time>2017-07-30T21:36:55Z</time>
      </trkpt>
      <trkpt lat="45.66451" lon="4.41626">
        <ele>582</ele>
        <time>2017-07-30T21:38:55Z</time>
      </trkpt>
      <trkpt lat="45.66485" lon="4.41596">
        <ele>576</ele>
        <time>2017-07-30T21:40:55Z</time>
      </trkpt>
      <trkpt lat="45.66535" lon="4.41566">
        <ele>568</ele>
        <time>2017-07-30T21:42:55Z</time>
      </trkpt>
      <trkpt lat="45.66572" lon="4.41555">
        <ele>564</ele>
        <time>2017-07-30T21:44:55Z</time>
      </trkpt>
      <trkpt lat="45.66617" lon="4.41557">
        <ele>559</ele>
        <time>2017-07-30T21:46:55Z</time>
      </trkpt>
      <trkpt lat="45.66692" lon="4.41551">
        <ele>547</ele>
        <time>2017-07-30T21:48:55Z</time>
      </trkpt>
      <trkpt lat="45.66718" lon="4.41532">
        <ele>541</ele>
        <time>2017-07-30T21:50:55Z</time>
      </trkpt>
      <trkpt lat="45.66722" lon="4.41506">
        <ele>538</ele>
        <time>2017-07-30T21:52:55Z</time>
      </trkpt>
      <trkpt lat="45.6671" lon="4.41476">
        <ele>537</ele>
        <time>2017-07-30T21:54:55Z</time>
      </trkpt>
      <trkpt lat="45.667" lon="4.41405">
        <ele>530</ele>
        <time>2017-07-30T21:56:55Z</time>
      </trkpt>
      <trkpt lat="45.66712" lon="4.41379">
        <ele>526</ele>
        <time>2017-07-30T21:58:55Z</time>
      </trkpt>
      <trkpt lat="45.66733" lon="4.41366">
        <ele>521</ele>
        <time>2017-07-30T22:00:55Z</time>
      </trkpt>
      <trkpt lat="45.66779" lon="4.41349">
        <ele>511</ele>
        <time>2017-07-30T22:02:55Z</time>
      </trkpt>
      <trkpt lat="45.66839" lon="4.4127">
        <ele>494</ele>
        <time>2017-07-30T22:04:55Z</time>
      </trkpt>
      <trkpt lat="45.66919" lon="4.41182">
        <ele>480</ele>
        <time>2017-07-30T22:06:55Z</time>
      </trkpt>
      <trkpt lat="45.66937" lon="4.4118">
        <ele>478</ele>
        <time>2017-07-30T22:08:55Z</time>
      </trkpt>
      <trkpt lat="45.66953" lon="4.41175">
        <ele>476</ele>
        <time>2017-07-30T22:10:55Z</time>
      </trkpt>
      <trkpt lat="45.66973" lon="4.41145">
        <ele>473</ele>
        <time>2017-07-30T22:12:55Z</time>
      </trkpt>
      <trkpt lat="45.6695" lon="4.41115">
        <ele>474</ele>
        <time>2017-07-30T22:14:55Z</time>
      </trkpt>
      <trkpt lat="45.66943" lon="4.41085">
        <ele>473</ele>
        <time>2017-07-30T22:16:55Z</time>
      </trkpt>
      <trkpt lat="45.66923" lon="4.4104">
        <ele>473</ele>
        <time>2017-07-30T22:18:55Z</time>
      </trkpt>
      <trkpt lat="45.66854" lon="4.40959">
        <ele>478</ele>
        <time>2017-07-30T22:20:55Z</time>
      </trkpt>
      <trkpt lat="45.66832" lon="4.40907">
        <ele>478</ele>
        <time>2017-07-30T22:22:55Z</time>
      </trkpt>
      <trkpt lat="45.66766" lon="4.40905">
        <ele>484</ele>
        <time>2017-07-30T22:24:55Z</time>
      </trkpt>
      <trkpt lat="45.66739" lon="4.40899">
        <ele>486</ele>
        <time>2017-07-30T22:26:55Z</time>
      </trkpt>
      <trkpt lat="45.6668" lon="4.40866">
        <ele>493</ele>
        <time>2017-07-30T22:28:55Z</time>
      </trkpt>
      <trkpt lat="45.66664" lon="4.40845">
        <ele>495</ele>
        <time>2017-07-30T22:30:55Z</time>
      </trkpt>
      <trkpt lat="45.66661" lon="4.40813">
        <ele>494</ele>
        <time>2017-07-30T22:32:55Z</time>
      </trkpt>
      <trkpt lat="45.66634" lon="4.40787">
        <ele>497</ele>
        <time>2017-07-30T22:34:55Z</time>
      </trkpt>
      <trkpt lat="45.66599" lon="4.40768">
        <ele>500</ele>
        <time>2017-07-30T22:36:55Z</time>
      </trkpt>
      <trkpt lat="45.66524" lon="4.40746">
        <ele>506</ele>
        <time>2017-07-30T22:38:55Z</time>
      </trkpt>
      <trkpt lat="45.66487" lon="4.40774">
        <ele>513</ele>
        <time>2017-07-30T22:40:55Z</time>
      </trkpt>
      <trkpt lat="45.66478" lon="4.40819">
        <ele>519</ele>
        <time>2017-07-30T22:42:55Z</time>
      </trkpt>
      <trkpt lat="45.66452" lon="4.40984">
        <ele>532</ele>
        <time>2017-07-30T22:44:55Z</time>
      </trkpt>
      <trkpt lat="45.66419" lon="4.41032">
        <ele>538</ele>
        <time>2017-07-30T22:46:55Z</time>
      </trkpt>
      <trkpt lat="45.66362" lon="4.41081">
        <ele>552</ele>
        <time>2017-07-30T22:48:55Z</time>
      </trkpt>
      <trkpt lat="45.66301" lon="4.41126">
        <ele>565</ele>
        <time>2017-07-30T22:50:55Z</time>
      </trkpt>
      <trkpt lat="45.66278" lon="4.41122">
        <ele>570</ele>
        <time>2017-07-30T22:52:55Z</time>
      </trkpt>
      <trkpt lat="45.66233" lon="4.41045">
        <ele>579</ele>
        <time>2017-07-30T22:54:55Z</time>
      </trkpt>
      <trkpt lat="45.66203" lon="4.41045">
        <ele>587</ele>
        <time>2017-07-30T22:56:55Z</time>
      </trkpt>
      <trkpt lat="45.6614" lon="4.41077">
        <ele>601</ele>
        <time>2017-07-30T22:58:55Z</time>
      </trkpt>
      <trkpt lat="45.66031" lon="4.41128">
        <ele>608</ele>
        <time>2017-07-30T23:00:55Z</time>
      </trkpt>
      <trkpt lat="45.65944" lon="4.41134">
        <ele>613</ele>
        <time>2017-07-30T23:02:55Z</time>
      </trkpt>
      <trkpt lat="45.65908" lon="4.40939">
        <ele>608</ele>
        <time>2017-07-30T23:04:55Z</time>
      </trkpt>
      <trkpt lat="45.65893" lon="4.40886">
        <ele>606</ele>
        <time>2017-07-30T23:06:55Z</time>
      </trkpt>
      <trkpt lat="45.65897" lon="4.40856">
        <ele>605</ele>
        <time>2017-07-30T23:08:55Z</time>
      </trkpt>
      <trkpt lat="45.65917" lon="4.40826">
        <ele>603</ele>
        <time>2017-07-30T23:10:55Z</time>
      </trkpt>
      <trkpt lat="45.66016" lon="4.40729">
        <ele>600</ele>
        <time>2017-07-30T23:12:55Z</time>
      </trkpt>
      <trkpt lat="45.66117" lon="4.40611">
        <ele>588</ele>
        <time>2017-07-30T23:14:55Z</time>
      </trkpt>
      <trkpt lat="45.66206" lon="4.40489">
        <ele>567</ele>
        <time>2017-07-30T23:16:55Z</time>
      </trkpt>
      <trkpt lat="45.66207" lon="4.40435">
        <ele>563</ele>
        <time>2017-07-30T23:18:55Z</time>
      </trkpt>
      <trkpt lat="45.66215" lon="4.40437">
        <ele>561</ele>
        <time>2017-07-30T23:20:55Z</time>
      </trkpt>
      <trkpt lat="45.66237" lon="4.40448">
        <ele>557</ele>
        <time>2017-07-30T23:22:55Z</time>
      </trkpt>
      <trkpt lat="45.6626" lon="4.40478">
        <ele>552</ele>
        <time>2017-07-30T23:24:55Z</time>
      </trkpt>
      <trkpt lat="45.66261" lon="4.40394">
        <ele>547</ele>
        <time>2017-07-30T23:26:55Z</time>
      </trkpt>
      <trkpt lat="45.66248" lon="4.40309">
        <ele>539</ele>
        <time>2017-07-30T23:28:55Z</time>
      </trkpt>
      <trkpt lat="45.66254" lon="4.40278">
        <ele>534</ele>
        <time>2017-07-30T23:30:55Z</time>
      </trkpt>
      <trkpt lat="45.66288" lon="4.40233">
        <ele>523</ele>
        <time>2017-07-30T23:32:55Z</time>
      </trkpt>
      <trkpt lat="45.66303" lon="4.40236">
        <ele>521</ele>
        <time>2017-07-30T23:34:55Z</time>
      </trkpt>
      <trkpt lat="45.66336" lon="4.40261">
        <ele>518</ele>
        <time>2017-07-30T23:36:55Z</time>
      </trkpt>
      <trkpt lat="45.66324" lon="4.40216">
        <ele>516</ele>
        <time>2017-07-30T23:38:55Z</time>
      </trkpt>
      <trkpt lat="45.66281" lon="4.40128">
        <ele>511</ele>
        <time>2017-07-30T23:40:55Z</time>
      </trkpt>
      <trkpt lat="45.66209" lon="4.40055">
        <ele>514</ele>
        <time>2017-07-30T23:42:55Z</time>
      </trkpt>
      <trkpt lat="45.66225" lon="4.40023">
        <ele>513</ele>
        <time>2017-07-30T23:44:55Z</time>
      </trkpt>
      <trkpt lat="45.66258" lon="4.4001">
        <ele>507</ele>
        <time>2017-07-30T23:46:55Z</time>
      </trkpt>
      <trkpt lat="45.6629" lon="4.39978">
        <ele>502</ele>
        <time>2017-07-30T23:48:55Z</time>
      </trkpt>
      <trkpt lat="45.66296" lon="4.39858">
        <ele>500</ele>
        <time>2017-07-30T23:50:55Z</time>
      </trkpt>
      <trkpt lat="45.66195" lon="4.39733">
        <ele>509</ele>
        <time>2017-07-30T23:52:55Z</time>
      </trkpt>
      <trkpt lat="45.66131" lon="4.39703">
        <ele>516</ele>
        <time>2017-07-30T23:54:55Z</time>
      </trkpt>
      <trkpt lat="45.66032" lon="4.39626">
        <ele>528</ele>
        <time>2017-07-30T23:56:55Z</time>
      </trkpt>
      <trkpt lat="45.6605" lon="4.39598">
        <ele>524</ele>
        <time>2017-07-30T23:58:55Z</time>
      </trkpt>
      <trkpt lat="45.66049" lon="4.39566">
        <ele>522</ele>
        <time>2017-07-31T00:00:55Z</time>
      </trkpt>
      <trkpt lat="45.66035" lon="4.3953">
        <ele>524</ele>
        <time>2017-07-31T00:02:55Z</time>
      </trkpt>
      <trkpt lat="45.66025" lon="4.39491">
        <ele>523</ele>
        <time>2017-07-31T00:04:55Z</time>
      </trkpt>
      <trkpt lat="45.6596" lon="4.3947">
        <ele>533</ele>
        <time>2017-07-31T00:06:55Z</time>
      </trkpt>
      <trkpt lat="45.65941" lon="4.39446">
        <ele>535</ele>
        <time>2017-07-31T00:08:55Z</time>
      </trkpt>
      <trkpt lat="45.65881" lon="4.39427">
        <ele>539</ele>
        <time>2017-07-31T00:10:55Z</time>
      </trkpt>
      <trkpt lat="45.65887" lon="4.39379">
        <ele>535</ele>
        <time>2017-07-31T00:12:55Z</time>
      </trkpt>
      <trkpt lat="45.65903" lon="4.39296">
        <ele>529</ele>
        <time>2017-07-31T00:14:55Z</time>
      </trkpt>
      <trkpt lat="45.6592" lon="4.39266">
        <ele>525</ele>
        <time>2017-07-31T00:16:55Z</time>
      </trkpt>
      <trkpt lat="45.65939" lon="4.39197">
        <ele>519</ele>
        <time>2017-07-31T00:18:55Z</time>
      </trkpt>
      <trkpt lat="45.65935" lon="4.3912">
        <ele>514</ele>
        <time>2017-07-31T00:20:55Z</time>
      </trkpt>
      <trkpt lat="45.65882" lon="4.38942">
        <ele>503</ele>
        <time>2017-07-31T00:22:55Z</time>
      </trkpt>
      <trkpt lat="45.65888" lon="4.38879">
        <ele>501</ele>
        <time>2017-07-31T00:24:55Z</time>
      </trkpt>
      <trkpt lat="45.65957" lon="4.38852">
        <ele>496</ele>
        <time>2017-07-31T00:26:55Z</time>
      </trkpt>
      <trkpt lat="45.65972" lon="4.38828">
        <ele>495</ele>
        <time>2017-07-31T00:28:55Z</time>
      </trkpt>
      <trkpt lat="45.65905" lon="4.388">
        <ele>502</ele>
        <time>2017-07-31T00:30:55Z</time>
      </trkpt>
      <trkpt lat="45.65866" lon="4.38755">
        <ele>507</ele>
        <time>2017-07-31T00:32:55Z</time>
      </trkpt>
      <trkpt lat="45.65888" lon="4.38721">
        <ele>505</ele>
        <time>2017-07-31T00:34:55Z</time>
      </trkpt>
      <trkpt lat="45.65891" lon="4.38691">
        <ele>504</ele>
        <time>2017-07-31T00:36:55Z</time>
      </trkpt>
      <trkpt lat="45.65891" lon="4.38618">
        <ele>503</ele>
        <time>2017-07-31T00:38:55Z</time>
      </trkpt>
      <trkpt lat="45.65878" lon="4.38555">
        <ele>502</ele>
        <time>2017-07-31T00:40:55Z</time>
      </trkpt>
      <trkpt lat="45.65872" lon="4.38487">
        <ele>500</ele>
        <time>2017-07-31T00:42:55Z</time>
      </trkpt>
      <trkpt lat="45.65854" lon="4.38459">
        <ele>501</ele>
        <time>2017-07-31T00:44:55Z</time>
      </trkpt>
      <trkpt lat="45.65819" lon="4.38452">
        <ele>506</ele>
        <time>2017-07-31T00:46:55Z</time>
      </trkpt>
      <trkpt lat="45.65773" lon="4.38388">
        <ele>513</ele>
        <time>2017-07-31T00:48:55Z</time>
      </trkpt>
      <trkpt lat="45.6575" lon="4.38373">
        <ele>516</ele>
        <time>2017-07-31T00:50:55Z</time>
      </trkpt>
      <trkpt lat="45.6571" lon="4.38304">
        <ele>521</ele>
        <time>2017-07-31T00:52:55Z</time>
      </trkpt>
      <trkpt lat="45.65669" lon="4.38326">
        <ele>531</ele>
        <time>2017-07-31T00:54:55Z</time>
      </trkpt>
      <trkpt lat="45.65659" lon="4.38268">
        <ele>532</ele>
        <time>2017-07-31T00:56:55Z</time>
      </trkpt>
      <trkpt lat="45.65594" lon="4.38103">
        <ele>547</ele>
        <time>2017-07-31T00:58:55Z</time>
      </trkpt>
      <trkpt lat="45.65569" lon="4.38073">
        <ele>551</ele>
        <time>2017-07-31T01:00:55Z</time>
      </trkpt>
      <trkpt lat="45.6545" lon="4.37987">
        <ele>564</ele>
        <time>2017-07-31T01:02:55Z</time>
      </trkpt>
      <trkpt lat="45.65425" lon="4.37959">
        <ele>565</ele>
        <time>2017-07-31T01:04:55Z</time>
      </trkpt>
      <trkpt lat="45.65341" lon="4.37914">
        <ele>567</ele>
        <time>2017-07-31T01:06:55Z</time>
      </trkpt>
      <trkpt lat="45.65341" lon="4.37952">
        <ele>567</ele>
        <time>2017-07-31T01:08:55Z</time>
      </trkpt>
      <trkpt lat="45.65323" lon="4.38023">
        <ele>567</ele>
        <time>2017-07-31T01:10:55Z</time>
      </trkpt>
      <trkpt lat="45.65285" lon="4.38109">
        <ele>563</ele>
        <time>2017-07-31T01:12:55Z</time>
      </trkpt>
      <trkpt lat="45.65222" lon="4.38204">
        <ele>563</ele>
        <time>2017-07-31T01:14:55Z</time>
      </trkpt>
      <trkpt lat="45.65192" lon="4.38195">
        <ele>563</ele>
        <time>2017-07-31T01:16:55Z</time>
      </trkpt>
      <trkpt lat="45.65146" lon="4.38212">
        <ele>560</ele>
        <time>2017-07-31T01:18:55Z</time>
      </trkpt>
      <trkpt lat="45.6512" lon="4.38238">
        <ele>557</ele>
        <time>2017-07-31T01:20:55Z</time>
      </trkpt>
      <trkpt lat="45.65095" lon="4.38289">
        <ele>557</ele>
        <time>2017-07-31T01:22:55Z</time>
      </trkpt>
      <trkpt lat="45.65069" lon="4.38309">
        <ele>557</ele>
        <time>2017-07-31T01:24:55Z</time>
      </trkpt>
      <trkpt lat="45.65045" lon="4.38431">
        <ele>562</ele>
        <time>2017-07-31T01:26:55Z</time>
      </trkpt>
      <trkpt lat="45.65014" lon="4.38476">
        <ele>560</ele>
        <time>2017-07-31T01:28:55Z</time>
      </trkpt>
      <trkpt lat="45.64991" lon="4.38583">
        <ele>562</ele>
        <time>2017-07-31T01:30:55Z</time>
      </trkpt>
      <trkpt lat="45.65" lon="4.38658">
        <ele>561</ele>
        <time>2017-07-31T01:32:55Z</time>
      </trkpt>
      <trkpt lat="45.64957" lon="4.38725">
        <ele>568</ele>
        <time>2017-07-31T01:34:55Z</time>
      </trkpt>
      <trkpt lat="45.64922" lon="4.38783">
        <ele>575</ele>
        <time>2017-07-31T01:36:55Z</time>
      </trkpt>
      <trkpt lat="45.64831" lon="4.38817">
        <ele>581</ele>
        <time>2017-07-31T01:38:55Z</time>
      </trkpt>
      <trkpt lat="45.64804" lon="4.38852">
        <ele>586</ele>
        <time>2017-07-31T01:40:55Z</time>
      </trkpt>
      <trkpt lat="45.64775" lon="4.38871">
        <ele>591</ele>
        <time>2017-07-31T01:42:55Z</time>
      </trkpt>
      <trkpt lat="45.64759" lon="4.3886">
        <ele>591</ele>
        <time>2017-07-31T01:44:55Z</time>
      </trkpt>
      <trkpt lat="45.6473" lon="4.38843">
        <ele>592</ele>
        <time>2017-07-31T01:46:55Z</time>
      </trkpt>
      <trkpt lat="45.64624" lon="4.38873">
        <ele>602</ele>
        <time>2017-07-31T01:48:55Z</time>
      </trkpt>
      <trkpt lat="45.64606" lon="4.38875">
        <ele>604</ele>
        <time>2017-07-31T01:50:55Z</time>
      </trkpt>
      <trkpt lat="45.64522" lon="4.38925">
        <ele>608</ele>
        <time>2017-07-31T01:52:55Z</time>
      </trkpt>
      <trkpt lat="45.64522" lon="4.38963">
        <ele>609</ele>
        <time>2017-07-31T01:54:55Z</time>
      </trkpt>
      <trkpt lat="45.64589" lon="4.39141">
        <ele>619</ele>
        <time>2017-07-31T01:56:55Z</time>
      </trkpt>
      <trkpt lat="45.64631" lon="4.39294">
        <ele>620</ele>
        <time>2017-07-31T01:58:55Z</time>
      </trkpt>
      <trkpt lat="45.64601" lon="4.39354">
        <ele>620</ele>
        <time>2017-07-31T02:00:55Z</time>
      </trkpt>
      <trkpt lat="45.64529" lon="4.39433">
        <ele>620</ele>
        <time>2017-07-31T02:02:55Z</time>
      </trkpt>
      <trkpt lat="45.64481" lon="4.39558">
        <ele>620</ele>
        <time>2017-07-31T02:04:55Z</time>
      </trkpt>
      <trkpt lat="45.64417" lon="4.39431">
        <ele>625</ele>
        <time>2017-07-31T02:06:55Z</time>
      </trkpt>
      <trkpt lat="45.64384" lon="4.39362">
        <ele>625</ele>
        <time>2017-07-31T02:08:55Z</time>
      </trkpt>
      <trkpt lat="45.64357" lon="4.39332">
        <ele>625</ele>
        <time>2017-07-31T02:10:55Z</time>
      </trkpt>
      <trkpt lat="45.64291" lon="4.39287">
        <ele>621</ele>
        <time>2017-07-31T02:12:55Z</time>
      </trkpt>
      <trkpt lat="45.64244" lon="4.39276">
        <ele>618</ele>
        <time>2017-07-31T02:14:55Z</time>
      </trkpt>
      <trkpt lat="45.64207" lon="4.39251">
        <ele>616</ele>
        <time>2017-07-31T02:16:55Z</time>
      </trkpt>
      <trkpt lat="45.64172" lon="4.39272">
        <ele>616</ele>
        <time>2017-07-31T02:18:55Z</time>
      </trkpt>
      <trkpt lat="45.64141" lon="4.39336">
        <ele>618</ele>
        <time>2017-07-31T02:20:55Z</time>
      </trkpt>
      <trkpt lat="45.64117" lon="4.39358">
        <ele>619</ele>
        <time>2017-07-31T02:22:55Z</time>
      </trkpt>
      <trkpt lat="45.64024" lon="4.39421">
        <ele>622</ele>
        <time>2017-07-31T02:24:55Z</time>
      </trkpt>
      <trkpt lat="45.63992" lon="4.39444">
        <ele>622</ele>
        <time>2017-07-31T02:26:55Z</time>
      </trkpt>
      <trkpt lat="45.63988" lon="4.39472">
        <ele>623</ele>
        <time>2017-07-31T02:28:55Z</time>
      </trkpt>
      <trkpt lat="45.6383" lon="4.39552">
        <ele>621</ele>
        <time>2017-07-31T02:30:55Z</time>
      </trkpt>
      <trkpt lat="45.63841" lon="4.39625">
        <ele>615</ele>
        <time>2017-07-31T02:32:55Z</time>
      </trkpt>
    </trkseg>
  </trk>
</gpx>